sensor_id;sensor_type;location;lat;lon;timestamp;P1;durP1;ratioP1;P2;durP2;ratioP2
21095;SDS011;10706;49.036;12.112;2022-10-29T00:01:49;16.67;;;6.25;;
21095;SDS011;10706;49.036;12.112;2022-10-29T00:04:15;16.77;;;6.72;;
21095;SDS011;10706;49.036;12.112;2022-10-29T00:06:41;24.38;;;6.63;;
21095;SDS011;10706;49.036;12.112;2022-10-29T00:09:07;22.33;;;7.53;;
21095;SDS011;10706;49.036;12.112;2022-10-29T00:11:34;17.35;;;6.53;;
21095;SDS011;10706;49.036;12.112;2022-10-29T00:14:00;20.95;;;6.85;;
21095;SDS011;10706;49.036;12.112;2022-10-29T00:16:27;21.88;;;6.35;;
21095;SDS011;10706;49.036;12.112;2022-10-29T00:19:00;19.45;;;7.45;;
21095;SDS011;10706;49.036;12.112;2022-10-29T00:21:28;22.98;;;7.03;;
21095;SDS011;10706;49.036;12.112;2022-10-29T00:23:55;20.52;;;7.68;;
21095;SDS011;10706;49.036;12.112;2022-10-29T00:26:22;20.15;;;7.60;;
21095;SDS011;10706;49.036;12.112;2022-10-29T00:28:52;22.05;;;7.78;;
21095;SDS011;10706;49.036;12.112;2022-10-29T00:31:20;18.00;;;7.22;;
21095;SDS011;10706;49.036;12.112;2022-10-29T00:33:50;17.52;;;7.05;;
21095;SDS011;10706;49.036;12.112;2022-10-29T00:36:22;16.80;;;7.10;;
21095;SDS011;10706;49.036;12.112;2022-10-29T00:38:54;18.63;;;6.68;;
21095;SDS011;10706;49.036;12.112;2022-10-29T00:41:25;19.08;;;6.80;;
21095;SDS011;10706;49.036;12.112;2022-10-29T00:46:47;18.00;;;7.32;;
21095;SDS011;10706;49.036;12.112;2022-10-29T00:49:16;15.60;;;5.95;;
21095;SDS011;10706;49.036;12.112;2022-10-29T00:51:44;17.52;;;7.57;;
21095;SDS011;10706;49.036;12.112;2022-10-29T00:54:12;18.45;;;6.93;;
21095;SDS011;10706;49.036;12.112;2022-10-29T00:56:47;19.80;;;7.60;;
21095;SDS011;10706;49.036;12.112;2022-10-29T00:59:16;20.85;;;7.85;;
21095;SDS011;10706;49.036;12.112;2022-10-29T01:01:43;21.80;;;7.38;;
21095;SDS011;10706;49.036;12.112;2022-10-29T01:04:11;20.30;;;8.20;;
21095;SDS011;10706;49.036;12.112;2022-10-29T01:06:37;17.15;;;7.72;;
21095;SDS011;10706;49.036;12.112;2022-10-29T01:09:06;17.55;;;6.63;;
21095;SDS011;10706;49.036;12.112;2022-10-29T01:14:37;20.23;;;6.90;;
21095;SDS011;10706;49.036;12.112;2022-10-29T01:17:27;19.90;;;8.00;;
21095;SDS011;10706;49.036;12.112;2022-10-29T01:32:10;15.80;;;7.15;;
21095;SDS011;10706;49.036;12.112;2022-10-29T01:37:38;18.00;;;7.35;;
21095;SDS011;10706;49.036;12.112;2022-10-29T01:43:18;27.77;;;9.18;;
21095;SDS011;10706;49.036;12.112;2022-10-29T01:46:01;16.70;;;7.05;;
21095;SDS011;10706;49.036;12.112;2022-10-29T01:48:38;20.23;;;7.75;;
21095;SDS011;10706;49.036;12.112;2022-10-29T01:51:16;22.92;;;8.10;;
21095;SDS011;10706;49.036;12.112;2022-10-29T01:53:47;20.40;;;8.20;;
21095;SDS011;10706;49.036;12.112;2022-10-29T01:56:14;21.88;;;7.72;;
21095;SDS011;10706;49.036;12.112;2022-10-29T01:58:41;22.65;;;7.95;;
21095;SDS011;10706;49.036;12.112;2022-10-29T02:01:57;17.55;;;7.90;;
21095;SDS011;10706;49.036;12.112;2022-10-29T02:10:31;19.98;;;8.32;;
21095;SDS011;10706;49.036;12.112;2022-10-29T02:13:04;20.77;;;8.52;;
21095;SDS011;10706;49.036;12.112;2022-10-29T02:15:44;18.10;;;7.32;;
21095;SDS011;10706;49.036;12.112;2022-10-29T02:18:14;21.20;;;8.50;;
21095;SDS011;10706;49.036;12.112;2022-10-29T02:20:42;18.30;;;8.27;;
21095;SDS011;10706;49.036;12.112;2022-10-29T02:23:09;17.63;;;7.50;;
21095;SDS011;10706;49.036;12.112;2022-10-29T02:25:36;19.38;;;8.45;;
21095;SDS011;10706;49.036;12.112;2022-10-29T02:28:01;23.13;;;7.45;;
21095;SDS011;10706;49.036;12.112;2022-10-29T02:30:27;20.27;;;8.07;;
21095;SDS011;10706;49.036;12.112;2022-10-29T02:32:53;23.75;;;7.80;;
21095;SDS011;10706;49.036;12.112;2022-10-29T02:35:19;23.38;;;7.60;;
21095;SDS011;10706;49.036;12.112;2022-10-29T02:37:44;21.27;;;8.73;;
21095;SDS011;10706;49.036;12.112;2022-10-29T02:40:10;18.13;;;7.90;;
21095;SDS011;10706;49.036;12.112;2022-10-29T02:42:37;20.58;;;8.63;;
21095;SDS011;10706;49.036;12.112;2022-10-29T02:45:03;19.83;;;8.60;;
21095;SDS011;10706;49.036;12.112;2022-10-29T02:47:29;20.35;;;8.52;;
21095;SDS011;10706;49.036;12.112;2022-10-29T02:49:55;17.33;;;8.13;;
21095;SDS011;10706;49.036;12.112;2022-10-29T02:52:20;20.52;;;9.27;;
21095;SDS011;10706;49.036;12.112;2022-10-29T02:54:46;19.77;;;8.77;;
21095;SDS011;10706;49.036;12.112;2022-10-29T02:57:12;25.08;;;9.65;;
21095;SDS011;10706;49.036;12.112;2022-10-29T02:59:38;23.88;;;9.52;;
21095;SDS011;10706;49.036;12.112;2022-10-29T03:02:03;22.55;;;8.90;;
21095;SDS011;10706;49.036;12.112;2022-10-29T03:04:29;27.52;;;10.45;;
21095;SDS011;10706;49.036;12.112;2022-10-29T03:06:55;28.15;;;9.20;;
21095;SDS011;10706;49.036;12.112;2022-10-29T03:09:21;24.80;;;9.60;;
21095;SDS011;10706;49.036;12.112;2022-10-29T03:11:46;26.55;;;10.65;;
21095;SDS011;10706;49.036;12.112;2022-10-29T03:14:12;22.80;;;10.43;;
21095;SDS011;10706;49.036;12.112;2022-10-29T03:16:38;22.35;;;9.25;;
21095;SDS011;10706;49.036;12.112;2022-10-29T03:19:04;23.80;;;9.93;;
21095;SDS011;10706;49.036;12.112;2022-10-29T03:21:29;21.75;;;9.13;;
21095;SDS011;10706;49.036;12.112;2022-10-29T03:23:55;21.35;;;9.35;;
21095;SDS011;10706;49.036;12.112;2022-10-29T03:26:21;22.77;;;9.27;;
21095;SDS011;10706;49.036;12.112;2022-10-29T03:28:46;27.45;;;9.90;;
21095;SDS011;10706;49.036;12.112;2022-10-29T03:31:12;29.80;;;10.15;;
21095;SDS011;10706;49.036;12.112;2022-10-29T03:33:38;26.33;;;10.63;;
21095;SDS011;10706;49.036;12.112;2022-10-29T03:36:04;28.45;;;10.52;;
21095;SDS011;10706;49.036;12.112;2022-10-29T03:38:31;23.35;;;10.77;;
21095;SDS011;10706;49.036;12.112;2022-10-29T03:40:58;25.48;;;12.13;;
21095;SDS011;10706;49.036;12.112;2022-10-29T03:43:24;27.70;;;10.23;;
21095;SDS011;10706;49.036;12.112;2022-10-29T03:45:54;25.38;;;9.93;;
21095;SDS011;10706;49.036;12.112;2022-10-29T03:48:22;24.95;;;11.43;;
21095;SDS011;10706;49.036;12.112;2022-10-29T03:50:55;25.17;;;10.02;;
21095;SDS011;10706;49.036;12.112;2022-10-29T03:53:25;27.30;;;10.88;;
21095;SDS011;10706;49.036;12.112;2022-10-29T03:55:52;26.48;;;11.18;;
21095;SDS011;10706;49.036;12.112;2022-10-29T03:58:19;23.08;;;9.88;;
21095;SDS011;10706;49.036;12.112;2022-10-29T04:00:56;26.70;;;9.95;;
21095;SDS011;10706;49.036;12.112;2022-10-29T04:03:27;25.02;;;10.05;;
21095;SDS011;10706;49.036;12.112;2022-10-29T04:05:55;24.58;;;10.18;;
21095;SDS011;10706;49.036;12.112;2022-10-29T04:08:22;24.33;;;10.57;;
21095;SDS011;10706;49.036;12.112;2022-10-29T04:10:48;22.67;;;10.23;;
21095;SDS011;10706;49.036;12.112;2022-10-29T04:13:15;25.92;;;9.55;;
21095;SDS011;10706;49.036;12.112;2022-10-29T04:15:41;22.73;;;9.82;;
21095;SDS011;10706;49.036;12.112;2022-10-29T04:18:08;29.10;;;11.32;;
21095;SDS011;10706;49.036;12.112;2022-10-29T04:20:36;29.58;;;11.10;;
21095;SDS011;10706;49.036;12.112;2022-10-29T04:23:03;22.73;;;10.07;;
21095;SDS011;10706;49.036;12.112;2022-10-29T04:25:29;23.35;;;9.70;;
21095;SDS011;10706;49.036;12.112;2022-10-29T04:27:55;23.98;;;10.23;;
21095;SDS011;10706;49.036;12.112;2022-10-29T04:30:22;26.20;;;10.60;;
21095;SDS011;10706;49.036;12.112;2022-10-29T04:32:48;24.33;;;10.15;;
21095;SDS011;10706;49.036;12.112;2022-10-29T04:35:14;28.50;;;11.20;;
21095;SDS011;10706;49.036;12.112;2022-10-29T04:37:40;23.75;;;10.38;;
21095;SDS011;10706;49.036;12.112;2022-10-29T04:40:06;28.00;;;12.43;;
21095;SDS011;10706;49.036;12.112;2022-10-29T04:42:37;24.25;;;10.75;;
21095;SDS011;10706;49.036;12.112;2022-10-29T04:45:04;30.92;;;11.70;;
21095;SDS011;10706;49.036;12.112;2022-10-29T04:47:31;31.90;;;11.55;;
21095;SDS011;10706;49.036;12.112;2022-10-29T04:49:57;27.08;;;11.02;;
21095;SDS011;10706;49.036;12.112;2022-10-29T04:52:23;26.75;;;12.07;;
21095;SDS011;10706;49.036;12.112;2022-10-29T04:54:49;29.80;;;11.95;;
21095;SDS011;10706;49.036;12.112;2022-10-29T04:57:15;23.80;;;11.63;;
21095;SDS011;10706;49.036;12.112;2022-10-29T04:59:41;28.77;;;11.90;;
21095;SDS011;10706;49.036;12.112;2022-10-29T05:02:07;28.42;;;12.25;;
21095;SDS011;10706;49.036;12.112;2022-10-29T05:04:33;28.48;;;11.90;;
21095;SDS011;10706;49.036;12.112;2022-10-29T05:06:59;29.77;;;11.75;;
21095;SDS011;10706;49.036;12.112;2022-10-29T05:09:25;24.15;;;11.82;;
21095;SDS011;10706;49.036;12.112;2022-10-29T05:11:51;29.10;;;12.20;;
21095;SDS011;10706;49.036;12.112;2022-10-29T05:14:16;26.17;;;11.93;;
21095;SDS011;10706;49.036;12.112;2022-10-29T05:16:42;29.55;;;12.23;;
21095;SDS011;10706;49.036;12.112;2022-10-29T05:19:08;25.52;;;10.98;;
21095;SDS011;10706;49.036;12.112;2022-10-29T05:21:34;27.67;;;12.05;;
21095;SDS011;10706;49.036;12.112;2022-10-29T05:23:59;27.80;;;11.95;;
21095;SDS011;10706;49.036;12.112;2022-10-29T05:26:25;27.13;;;12.50;;
21095;SDS011;10706;49.036;12.112;2022-10-29T05:28:53;25.35;;;11.15;;
21095;SDS011;10706;49.036;12.112;2022-10-29T05:31:19;26.73;;;11.68;;
21095;SDS011;10706;49.036;12.112;2022-10-29T05:33:45;23.15;;;11.10;;
21095;SDS011;10706;49.036;12.112;2022-10-29T05:36:10;26.95;;;11.50;;
21095;SDS011;10706;49.036;12.112;2022-10-29T05:38:36;25.17;;;9.98;;
21095;SDS011;10706;49.036;12.112;2022-10-29T05:41:02;31.85;;;10.27;;
21095;SDS011;10706;49.036;12.112;2022-10-29T05:43:28;28.73;;;11.90;;
21095;SDS011;10706;49.036;12.112;2022-10-29T05:45:54;23.33;;;11.07;;
21095;SDS011;10706;49.036;12.112;2022-10-29T05:48:19;26.45;;;12.25;;
21095;SDS011;10706;49.036;12.112;2022-10-29T05:50:45;31.98;;;11.40;;
21095;SDS011;10706;49.036;12.112;2022-10-29T05:53:12;26.95;;;11.60;;
21095;SDS011;10706;49.036;12.112;2022-10-29T05:55:39;25.10;;;12.07;;
21095;SDS011;10706;49.036;12.112;2022-10-29T05:58:06;28.67;;;12.02;;
21095;SDS011;10706;49.036;12.112;2022-10-29T06:00:36;30.13;;;11.52;;
21095;SDS011;10706;49.036;12.112;2022-10-29T06:03:09;29.33;;;11.98;;
21095;SDS011;10706;49.036;12.112;2022-10-29T06:05:41;26.65;;;12.60;;
21095;SDS011;10706;49.036;12.112;2022-10-29T06:08:07;32.20;;;12.95;;
21095;SDS011;10706;49.036;12.112;2022-10-29T06:10:33;27.85;;;11.38;;
21095;SDS011;10706;49.036;12.112;2022-10-29T06:12:59;27.00;;;11.70;;
21095;SDS011;10706;49.036;12.112;2022-10-29T06:15:25;22.05;;;10.27;;
21095;SDS011;10706;49.036;12.112;2022-10-29T06:17:51;28.05;;;12.45;;
21095;SDS011;10706;49.036;12.112;2022-10-29T06:20:18;29.15;;;11.90;;
21095;SDS011;10706;49.036;12.112;2022-10-29T06:22:45;28.30;;;12.32;;
21095;SDS011;10706;49.036;12.112;2022-10-29T06:25:11;29.02;;;12.10;;
21095;SDS011;10706;49.036;12.112;2022-10-29T06:27:37;28.38;;;12.23;;
21095;SDS011;10706;49.036;12.112;2022-10-29T06:30:03;27.27;;;13.50;;
21095;SDS011;10706;49.036;12.112;2022-10-29T06:32:30;30.67;;;12.85;;
21095;SDS011;10706;49.036;12.112;2022-10-29T06:34:56;29.40;;;12.57;;
21095;SDS011;10706;49.036;12.112;2022-10-29T06:37:22;27.15;;;11.90;;
21095;SDS011;10706;49.036;12.112;2022-10-29T06:39:47;28.95;;;11.88;;
21095;SDS011;10706;49.036;12.112;2022-10-29T06:42:13;33.47;;;12.20;;
21095;SDS011;10706;49.036;12.112;2022-10-29T06:44:39;27.77;;;12.02;;
21095;SDS011;10706;49.036;12.112;2022-10-29T06:47:04;28.90;;;12.25;;
21095;SDS011;10706;49.036;12.112;2022-10-29T06:49:30;25.77;;;11.88;;
21095;SDS011;10706;49.036;12.112;2022-10-29T06:51:56;24.83;;;11.68;;
21095;SDS011;10706;49.036;12.112;2022-10-29T06:54:22;24.98;;;11.40;;
21095;SDS011;10706;49.036;12.112;2022-10-29T06:56:48;26.45;;;11.85;;
21095;SDS011;10706;49.036;12.112;2022-10-29T06:59:13;28.42;;;11.35;;
21095;SDS011;10706;49.036;12.112;2022-10-29T07:01:39;28.83;;;11.38;;
21095;SDS011;10706;49.036;12.112;2022-10-29T07:04:05;26.25;;;12.50;;
21095;SDS011;10706;49.036;12.112;2022-10-29T07:06:31;28.88;;;11.10;;
21095;SDS011;10706;49.036;12.112;2022-10-29T07:08:58;26.65;;;11.13;;
21095;SDS011;10706;49.036;12.112;2022-10-29T07:11:24;26.30;;;10.13;;
21095;SDS011;10706;49.036;12.112;2022-10-29T07:13:49;31.42;;;11.90;;
21095;SDS011;10706;49.036;12.112;2022-10-29T07:16:15;29.77;;;11.52;;
21095;SDS011;10706;49.036;12.112;2022-10-29T07:18:41;28.17;;;10.98;;
21095;SDS011;10706;49.036;12.112;2022-10-29T07:21:06;28.80;;;10.13;;
21095;SDS011;10706;49.036;12.112;2022-10-29T07:23:33;21.77;;;10.45;;
21095;SDS011;10706;49.036;12.112;2022-10-29T07:25:59;26.52;;;10.55;;
21095;SDS011;10706;49.036;12.112;2022-10-29T07:28:25;26.33;;;11.30;;
21095;SDS011;10706;49.036;12.112;2022-10-29T07:30:51;39.13;;;10.88;;
21095;SDS011;10706;49.036;12.112;2022-10-29T07:33:22;20.95;;;9.30;;
21095;SDS011;10706;49.036;12.112;2022-10-29T07:35:47;23.45;;;10.38;;
21095;SDS011;10706;49.036;12.112;2022-10-29T07:38:13;21.63;;;9.70;;
21095;SDS011;10706;49.036;12.112;2022-10-29T07:40:39;22.67;;;9.40;;
21095;SDS011;10706;49.036;12.112;2022-10-29T07:43:12;28.25;;;10.60;;
21095;SDS011;10706;49.036;12.112;2022-10-29T07:45:38;31.13;;;11.27;;
21095;SDS011;10706;49.036;12.112;2022-10-29T07:48:05;30.40;;;10.80;;
21095;SDS011;10706;49.036;12.112;2022-10-29T07:50:31;22.45;;;9.98;;
21095;SDS011;10706;49.036;12.112;2022-10-29T07:52:58;26.67;;;10.07;;
21095;SDS011;10706;49.036;12.112;2022-10-29T07:55:24;25.80;;;10.93;;
21095;SDS011;10706;49.036;12.112;2022-10-29T07:57:57;26.88;;;10.68;;
21095;SDS011;10706;49.036;12.112;2022-10-29T08:00:30;26.83;;;9.18;;
21095;SDS011;10706;49.036;12.112;2022-10-29T08:02:59;24.15;;;9.63;;
21095;SDS011;10706;49.036;12.112;2022-10-29T08:05:25;23.75;;;10.32;;
21095;SDS011;10706;49.036;12.112;2022-10-29T08:07:52;25.45;;;10.02;;
21095;SDS011;10706;49.036;12.112;2022-10-29T08:10:19;23.88;;;10.63;;
21095;SDS011;10706;49.036;12.112;2022-10-29T08:12:49;25.33;;;10.60;;
21095;SDS011;10706;49.036;12.112;2022-10-29T08:15:20;22.92;;;9.65;;
21095;SDS011;10706;49.036;12.112;2022-10-29T08:17:48;22.65;;;9.82;;
21095;SDS011;10706;49.036;12.112;2022-10-29T08:20:14;23.55;;;9.13;;
21095;SDS011;10706;49.036;12.112;2022-10-29T08:22:41;26.98;;;8.98;;
21095;SDS011;10706;49.036;12.112;2022-10-29T08:25:08;21.73;;;10.02;;
21095;SDS011;10706;49.036;12.112;2022-10-29T08:27:34;19.80;;;8.80;;
21095;SDS011;10706;49.036;12.112;2022-10-29T08:30:00;23.55;;;8.75;;
21095;SDS011;10706;49.036;12.112;2022-10-29T08:32:26;24.05;;;9.00;;
21095;SDS011;10706;49.036;12.112;2022-10-29T08:34:51;20.17;;;8.95;;
21095;SDS011;10706;49.036;12.112;2022-10-29T08:37:17;19.33;;;9.25;;
21095;SDS011;10706;49.036;12.112;2022-10-29T08:39:43;21.73;;;9.55;;
21095;SDS011;10706;49.036;12.112;2022-10-29T08:45:11;23.52;;;9.70;;
21095;SDS011;10706;49.036;12.112;2022-10-29T08:47:57;22.98;;;9.20;;
21095;SDS011;10706;49.036;12.112;2022-10-29T08:50:55;23.20;;;9.73;;
21095;SDS011;10706;49.036;12.112;2022-10-29T08:53:43;24.48;;;9.80;;
21095;SDS011;10706;49.036;12.112;2022-10-29T08:56:27;20.10;;;9.38;;
21095;SDS011;10706;49.036;12.112;2022-10-29T09:01:44;21.88;;;10.38;;
21095;SDS011;10706;49.036;12.112;2022-10-29T09:04:20;22.17;;;9.50;;
21095;SDS011;10706;49.036;12.112;2022-10-29T09:13:03;23.42;;;9.38;;
21095;SDS011;10706;49.036;12.112;2022-10-29T09:15:48;22.63;;;9.15;;
21095;SDS011;10706;49.036;12.112;2022-10-29T09:29:44;21.70;;;8.63;;
21095;SDS011;10706;49.036;12.112;2022-10-29T09:32:51;18.15;;;7.53;;
21095;SDS011;10706;49.036;12.112;2022-10-29T09:35:52;21.30;;;8.40;;
21095;SDS011;10706;49.036;12.112;2022-10-29T09:38:26;19.30;;;8.65;;
21095;SDS011;10706;49.036;12.112;2022-10-29T09:40:56;19.83;;;8.13;;
21095;SDS011;10706;49.036;12.112;2022-10-29T09:49:21;21.45;;;8.10;;
21095;SDS011;10706;49.036;12.112;2022-10-29T09:52:14;21.23;;;8.35;;
21095;SDS011;10706;49.036;12.112;2022-10-29T09:54:47;17.73;;;8.05;;
21095;SDS011;10706;49.036;12.112;2022-10-29T09:57:22;17.73;;;6.68;;
21095;SDS011;10706;49.036;12.112;2022-10-29T09:59:57;21.15;;;7.97;;
21095;SDS011;10706;49.036;12.112;2022-10-29T10:02:34;21.02;;;8.20;;
21095;SDS011;10706;49.036;12.112;2022-10-29T10:07:37;23.25;;;8.30;;
21095;SDS011;10706;49.036;12.112;2022-10-29T10:10:05;22.30;;;7.78;;
21095;SDS011;10706;49.036;12.112;2022-10-29T10:12:44;21.38;;;8.07;;
21095;SDS011;10706;49.036;12.112;2022-10-29T10:15:24;18.80;;;7.72;;
21095;SDS011;10706;49.036;12.112;2022-10-29T10:18:05;16.15;;;6.93;;
21095;SDS011;10706;49.036;12.112;2022-10-29T10:20:45;21.05;;;7.97;;
21095;SDS011;10706;49.036;12.112;2022-10-29T10:23:24;19.75;;;8.27;;
21095;SDS011;10706;49.036;12.112;2022-10-29T10:25:54;15.40;;;6.30;;
21095;SDS011;10706;49.036;12.112;2022-10-29T10:33:51;16.60;;;6.93;;
21095;SDS011;10706;49.036;12.112;2022-10-29T10:36:25;20.25;;;7.18;;
21095;SDS011;10706;49.036;12.112;2022-10-29T10:38:54;21.83;;;7.60;;
21095;SDS011;10706;49.036;12.112;2022-10-29T10:41:29;16.10;;;7.40;;
21095;SDS011;10706;49.036;12.112;2022-10-29T10:44:00;17.63;;;7.07;;
21095;SDS011;10706;49.036;12.112;2022-10-29T10:49:11;17.70;;;7.47;;
21095;SDS011;10706;49.036;12.112;2022-10-29T10:51:47;17.08;;;7.03;;
21095;SDS011;10706;49.036;12.112;2022-10-29T10:57:03;20.83;;;7.30;;
21095;SDS011;10706;49.036;12.112;2022-10-29T10:59:49;17.08;;;6.40;;
21095;SDS011;10706;49.036;12.112;2022-10-29T11:02:27;16.33;;;7.35;;
21095;SDS011;10706;49.036;12.112;2022-10-29T11:10:42;21.15;;;7.57;;
21095;SDS011;10706;49.036;12.112;2022-10-29T11:13:20;16.05;;;6.40;;
21095;SDS011;10706;49.036;12.112;2022-10-29T11:15:54;15.15;;;6.90;;
21095;SDS011;10706;49.036;12.112;2022-10-29T11:18:38;17.58;;;6.53;;
21095;SDS011;10706;49.036;12.112;2022-10-29T11:21:34;18.05;;;5.78;;
21095;SDS011;10706;49.036;12.112;2022-10-29T11:24:13;14.93;;;6.20;;
21095;SDS011;10706;49.036;12.112;2022-10-29T11:26:49;16.13;;;6.95;;
21095;SDS011;10706;49.036;12.112;2022-10-29T11:35:28;15.45;;;5.97;;
21095;SDS011;10706;49.036;12.112;2022-10-29T11:38:22;16.80;;;6.13;;
21095;SDS011;10706;49.036;12.112;2022-10-29T11:43:29;19.00;;;5.65;;
21095;SDS011;10706;49.036;12.112;2022-10-29T12:06:07;13.93;;;4.70;;
21095;SDS011;10706;49.036;12.112;2022-10-29T12:14:43;14.20;;;5.35;;
21095;SDS011;10706;49.036;12.112;2022-10-29T12:17:41;18.45;;;5.55;;
21095;SDS011;10706;49.036;12.112;2022-10-29T12:26:25;15.02;;;5.95;;
21095;SDS011;10706;49.036;12.112;2022-10-29T12:32:06;14.80;;;5.88;;
21095;SDS011;10706;49.036;12.112;2022-10-29T12:34:52;14.23;;;4.82;;
21095;SDS011;10706;49.036;12.112;2022-10-29T12:37:36;16.63;;;6.03;;
21095;SDS011;10706;49.036;12.112;2022-10-29T12:40:40;13.70;;;4.45;;
21095;SDS011;10706;49.036;12.112;2022-10-29T12:43:14;13.23;;;5.32;;
21095;SDS011;10706;49.036;12.112;2022-10-29T12:56:46;16.98;;;5.13;;
21095;SDS011;10706;49.036;12.112;2022-10-29T12:59:28;15.50;;;5.47;;
21095;SDS011;10706;49.036;12.112;2022-10-29T13:07:33;15.77;;;5.45;;
21095;SDS011;10706;49.036;12.112;2022-10-29T13:13:15;13.57;;;5.10;;
21095;SDS011;10706;49.036;12.112;2022-10-29T13:15:49;12.73;;;4.55;;
21095;SDS011;10706;49.036;12.112;2022-10-29T13:18:56;14.75;;;4.90;;
21095;SDS011;10706;49.036;12.112;2022-10-29T13:24:20;18.17;;;5.70;;
21095;SDS011;10706;49.036;12.112;2022-10-29T13:26:53;15.13;;;5.20;;
21095;SDS011;10706;49.036;12.112;2022-10-29T13:32:39;14.27;;;5.20;;
21095;SDS011;10706;49.036;12.112;2022-10-29T13:42:47;13.13;;;4.97;;
21095;SDS011;10706;49.036;12.112;2022-10-29T13:45:27;12.70;;;4.88;;
21095;SDS011;10706;49.036;12.112;2022-10-29T13:47:58;13.98;;;4.38;;
21095;SDS011;10706;49.036;12.112;2022-10-29T13:50:38;16.25;;;5.18;;
21095;SDS011;10706;49.036;12.112;2022-10-29T13:53:05;14.88;;;4.55;;
21095;SDS011;10706;49.036;12.112;2022-10-29T13:55:37;14.90;;;4.80;;
21095;SDS011;10706;49.036;12.112;2022-10-29T13:58:21;12.43;;;4.60;;
21095;SDS011;10706;49.036;12.112;2022-10-29T14:01:01;13.80;;;4.75;;
21095;SDS011;10706;49.036;12.112;2022-10-29T14:06:33;14.15;;;4.43;;
21095;SDS011;10706;49.036;12.112;2022-10-29T14:12:05;17.13;;;4.78;;
21095;SDS011;10706;49.036;12.112;2022-10-29T14:14:55;13.02;;;4.63;;
21095;SDS011;10706;49.036;12.112;2022-10-29T14:17:34;19.33;;;5.15;;
21095;SDS011;10706;49.036;12.112;2022-10-29T14:20:00;15.75;;;4.75;;
21095;SDS011;10706;49.036;12.112;2022-10-29T14:22:33;14.15;;;4.72;;
21095;SDS011;10706;49.036;12.112;2022-10-29T14:25:48;15.65;;;5.57;;
21095;SDS011;10706;49.036;12.112;2022-10-29T14:28:06;14.85;;;4.85;;
21095;SDS011;10706;49.036;12.112;2022-10-29T14:30:58;16.15;;;5.05;;
21095;SDS011;10706;49.036;12.112;2022-10-29T14:33:37;11.82;;;4.60;;
21095;SDS011;10706;49.036;12.112;2022-10-29T14:36:11;11.65;;;4.78;;
21095;SDS011;10706;49.036;12.112;2022-10-29T14:38:50;14.15;;;4.53;;
21095;SDS011;10706;49.036;12.112;2022-10-29T14:41:25;16.42;;;5.25;;
21095;SDS011;10706;49.036;12.112;2022-10-29T14:43:59;14.90;;;4.63;;
21095;SDS011;10706;49.036;12.112;2022-10-29T14:46:32;20.38;;;5.13;;
21095;SDS011;10706;49.036;12.112;2022-10-29T14:51:52;15.18;;;4.90;;
21095;SDS011;10706;49.036;12.112;2022-10-29T14:54:25;18.33;;;6.32;;
21095;SDS011;10706;49.036;12.112;2022-10-29T14:56:59;14.02;;;4.68;;
21095;SDS011;10706;49.036;12.112;2022-10-29T14:59:30;14.27;;;4.70;;
21095;SDS011;10706;49.036;12.112;2022-10-29T15:01:59;19.27;;;5.47;;
21095;SDS011;10706;49.036;12.112;2022-10-29T15:04:29;14.70;;;5.10;;
21095;SDS011;10706;49.036;12.112;2022-10-29T15:09:46;17.02;;;5.30;;
21095;SDS011;10706;49.036;12.112;2022-10-29T15:12:23;15.07;;;6.18;;
21095;SDS011;10706;49.036;12.112;2022-10-29T15:15:06;14.82;;;5.57;;
21095;SDS011;10706;49.036;12.112;2022-10-29T15:17:33;16.85;;;5.68;;
21095;SDS011;10706;49.036;12.112;2022-10-29T15:20:02;17.02;;;5.35;;
21095;SDS011;10706;49.036;12.112;2022-10-29T15:22:34;15.25;;;5.55;;
21095;SDS011;10706;49.036;12.112;2022-10-29T15:25:07;14.27;;;5.30;;
21095;SDS011;10706;49.036;12.112;2022-10-29T15:27:45;20.92;;;6.03;;
21095;SDS011;10706;49.036;12.112;2022-10-29T15:30:16;20.02;;;5.95;;
21095;SDS011;10706;49.036;12.112;2022-10-29T15:32:44;13.52;;;5.97;;
21095;SDS011;10706;49.036;12.112;2022-10-29T15:35:12;18.90;;;6.10;;
21095;SDS011;10706;49.036;12.112;2022-10-29T15:37:44;18.52;;;5.68;;
21095;SDS011;10706;49.036;12.112;2022-10-29T15:40:14;18.13;;;5.78;;
21095;SDS011;10706;49.036;12.112;2022-10-29T15:42:45;16.48;;;5.28;;
21095;SDS011;10706;49.036;12.112;2022-10-29T15:47:43;23.20;;;8.05;;
21095;SDS011;10706;49.036;12.112;2022-10-29T15:50:14;19.00;;;6.63;;
21095;SDS011;10706;49.036;12.112;2022-10-29T15:52:44;14.32;;;5.85;;
21095;SDS011;10706;49.036;12.112;2022-10-29T15:55:25;17.08;;;5.63;;
21095;SDS011;10706;49.036;12.112;2022-10-29T15:57:55;18.67;;;6.18;;
21095;SDS011;10706;49.036;12.112;2022-10-29T16:00:29;17.90;;;5.70;;
21095;SDS011;10706;49.036;12.112;2022-10-29T16:03:00;17.33;;;6.03;;
21095;SDS011;10706;49.036;12.112;2022-10-29T16:05:49;18.95;;;5.95;;
21095;SDS011;10706;49.036;12.112;2022-10-29T16:08:25;17.42;;;6.38;;
21095;SDS011;10706;49.036;12.112;2022-10-29T16:10:58;17.95;;;5.85;;
21095;SDS011;10706;49.036;12.112;2022-10-29T16:13:26;15.10;;;5.78;;
21095;SDS011;10706;49.036;12.112;2022-10-29T16:15:54;14.32;;;5.80;;
21095;SDS011;10706;49.036;12.112;2022-10-29T16:18:20;17.30;;;5.90;;
21095;SDS011;10706;49.036;12.112;2022-10-29T16:20:46;14.57;;;5.90;;
21095;SDS011;10706;49.036;12.112;2022-10-29T16:23:14;20.48;;;6.20;;
21095;SDS011;10706;49.036;12.112;2022-10-29T16:25:40;18.17;;;6.65;;
21095;SDS011;10706;49.036;12.112;2022-10-29T16:28:06;16.92;;;6.35;;
21095;SDS011;10706;49.036;12.112;2022-10-29T16:30:32;15.88;;;6.30;;
21095;SDS011;10706;49.036;12.112;2022-10-29T16:32:59;18.52;;;6.57;;
21095;SDS011;10706;49.036;12.112;2022-10-29T16:35:26;16.58;;;6.97;;
21095;SDS011;10706;49.036;12.112;2022-10-29T16:37:53;19.80;;;6.28;;
21095;SDS011;10706;49.036;12.112;2022-10-29T16:40:21;21.67;;;6.18;;
21095;SDS011;10706;49.036;12.112;2022-10-29T16:42:50;15.65;;;5.75;;
21095;SDS011;10706;49.036;12.112;2022-10-29T16:45:22;19.83;;;6.57;;
21095;SDS011;10706;49.036;12.112;2022-10-29T16:47:51;18.88;;;7.38;;
21095;SDS011;10706;49.036;12.112;2022-10-29T16:50:18;15.30;;;5.85;;
21095;SDS011;10706;49.036;12.112;2022-10-29T16:55:27;17.40;;;5.70;;
21095;SDS011;10706;49.036;12.112;2022-10-29T16:57:53;17.92;;;6.82;;
21095;SDS011;10706;49.036;12.112;2022-10-29T17:00:19;15.25;;;6.55;;
21095;SDS011;10706;49.036;12.112;2022-10-29T17:02:46;16.38;;;7.15;;
21095;SDS011;10706;49.036;12.112;2022-10-29T17:05:13;16.08;;;7.32;;
21095;SDS011;10706;49.036;12.112;2022-10-29T17:07:39;17.33;;;6.97;;
21095;SDS011;10706;49.036;12.112;2022-10-29T17:10:05;19.95;;;6.88;;
21095;SDS011;10706;49.036;12.112;2022-10-29T17:12:32;24.05;;;7.40;;
21095;SDS011;10706;49.036;12.112;2022-10-29T17:14:58;18.95;;;7.47;;
21095;SDS011;10706;49.036;12.112;2022-10-29T17:17:24;17.13;;;7.22;;
21095;SDS011;10706;49.036;12.112;2022-10-29T17:19:50;19.77;;;7.75;;
21095;SDS011;10706;49.036;12.112;2022-10-29T17:22:17;18.02;;;7.38;;
21095;SDS011;10706;49.036;12.112;2022-10-29T17:24:43;21.85;;;7.25;;
21095;SDS011;10706;49.036;12.112;2022-10-29T17:27:10;19.75;;;7.60;;
21095;SDS011;10706;49.036;12.112;2022-10-29T17:29:36;19.90;;;7.47;;
21095;SDS011;10706;49.036;12.112;2022-10-29T17:32:03;19.05;;;7.35;;